Mega Smeralda — ICIU — position and weather

sailwx.info

Track history (hours):
 
Tides and Currents Weather Stations Pressure Air Temp Water Temp Dewpoint Dewpoint Depression Visibility Wind Speed Wind Dir Waves Ship Positions

Mega Smeralda

Last reported at 2014-Aug-01 06:19 UTC. Time now 2014-Aug-01 07:58 UTC.
Position N 43°25' E 007°42'.

Length 171 m; draft 6.3 m.

Type: Passenger vessel. MMSI: 247228600.

Date/timePositionNaut miles runAvg speedWind from/ knotsBaromVisibWave heightAir tempDewpointWater temp
2014-Aug-01 06:19N 43°25' E 007°42'1519.1
2014-Aug-01 05:33N 43°35' E 007°27'10 9.6
2014-Aug-01 04:33N 43°42' E 007°17'0 0.0
2014-Aug-01 03:33N 43°42' E 007°17'1212.2
2014-Aug-01 02:33N 43°30' E 007°23'1514.6
2014-Aug-01 01:34N 43°17' E 007°32'1514.5
2014-Aug-01 00:33N 43°04' E 007°41'1414.3
2014-Jul-31 23:34N 42°51' E 007°50'2014.8
2014-Jul-31 22:13N 42°33' E 008°01'4014.5
2014-Jul-31 19:25N 41°57' E 008°26'36 2.0
2014-Jul-31 01:33N 42°13' E 007°42'1515.4
2014-Jul-31 00:33N 42°22' E 007°25'1515.4
2014-Jul-30 23:33N 42°30' E 007°07'1515.2
2014-Jul-30 22:34N 42°37' E 006°49'1615.7
2014-Jul-30 21:33N 42°44' E 006°30'1515.0
2014-Jul-30 20:33N 42°54' E 006°14'1515.2
2014-Jul-30 19:33N 43°04' E 005°59'4 3.6
2014-Jul-30 18:33N 43°07' E 005°56'0 0.0
2014-Jul-30 17:31N 43°07' E 005°56'0 0.0
2014-Jul-30 16:33N 43°07' E 005°56'0 0.0
2014-Jul-30 15:32N 43°07' E 005°56'1212.5
2014-Jul-30 14:33N 42°57' E 006°06'1717.2
2014-Jul-30 13:33N 42°48' E 006°25'1716.9
2014-Jul-30 12:33N 42°39' E 006°45'1716.9
2014-Jul-30 11:33N 42°30' E 007°05'25 1.9
2014-Jul-29 22:16N 42°43' E 006°36'1216.7
2014-Jul-29 21:33N 42°50' E 006°22'1716.5
2014-Jul-29 20:33N 42°59' E 006°04'10 7.1
2014-Jul-29 19:10N 43°07' E 005°56'0 0.0
2014-Jul-29 18:33N 43°07' E 005°56'2 1.6
2014-Jul-29 17:34N 43°05' E 005°55'1615.8
2014-Jul-29 16:33N 42°55' E 006°11'1716.9
2014-Jul-29 15:33N 42°46' E 006°31'1716.5
2014-Jul-29 14:33N 42°37' E 006°50'15 0.9
2014-Jul-28 22:03N 42°45' E 006°33'816.2
2014-Jul-28 21:33N 42°49' E 006°23'1616.3
2014-Jul-28 20:33N 42°58' E 006°04'1111.2
2014-Jul-28 19:33N 43°07' E 005°56'0 0.0
2014-Jul-28 18:33N 43°07' E 005°56'0 0.0
2014-Jul-28 17:33N 43°07' E 005°56'1313.2
2014-Jul-28 16:33N 42°57' E 006°07'1818.5
2014-Jul-28 15:33N 42°47' E 006°28'1818.0
2014-Jul-28 14:33N 42°37' E 006°49'1918.6
2014-Jul-28 13:33N 42°27' E 007°10'1818.2
2014-Jul-28 12:33N 42°18' E 007°31'34 3.1
2014-Jul-28 01:31N 42°36' E 006°52'1919.7
2014-Jul-28 00:33N 42°46' E 006°30'1918.9
2014-Jul-27 23:33N 42°56' E 006°09'1414.3
2014-Jul-27 22:33N 43°07' E 005°56'0 0.0
2014-Jul-27 21:33N 43°07' E 005°56'9 8.5
2014-Jul-27 20:33N 42°60' E 006°02'1918.8
2014-Jul-27 19:33N 42°55' E 006°27'2019.5
2014-Jul-27 18:33N 42°53' E 006°53'1919.1
2014-Jul-27 17:33N 42°50' E 007°19'4019.0
2014-Jul-27 15:27N 42°45' E 008°13'1719.4
2014-Jul-27 14:33N 42°42' E 008°37'15 6.7
2014-Jul-27 12:18N 42°39' E 008°57'9719.3
2014-Jul-27 07:17N 42°52' E 006°46'1418.9
2014-Jul-27 06:33N 42°54' E 006°28'1918.5
2014-Jul-27 05:33N 42°60' E 006°04'9 9.3
2014-Jul-27 04:34N 43°07' E 005°56'2 1.6
2014-Jul-27 03:33N 43°05' E 005°55'1616.4
2014-Jul-27 02:34N 42°57' E 006°14'2020.3
2014-Jul-27 01:34N 42°57' E 006°42'2019.5
2014-Jul-27 00:34N 42°57' E 007°09'1919.2
2014-Jul-26 23:33N 42°58' E 007°35'2019.5
2014-Jul-26 22:33N 42°59' E 008°02'1919.4
2014-Jul-26 21:34N 43°01' E 008°28'1919.1
2014-Jul-26 20:33N 43°03' E 008°54'2019.0
2014-Jul-26 19:31N 43°03' E 009°21'1716.1
2014-Jul-26 18:27N 42°48' E 009°32'7 3.2
2014-Jul-26 16:17N 42°42' E 009°28'1418.4
2014-Jul-26 15:33N 42°50' E 009°42'1919.1
2014-Jul-26 14:33N 43°04' E 010°00'1919.2
2014-Jul-26 13:34N 43°22' E 010°08'1313.1
2014-Jul-26 12:33N 43°33' E 010°18'0 0.0
2014-Jul-26 11:33N 43°33' E 010°18'6 6.3
2014-Jul-26 10:33N 43°29' E 010°12'2020.2
2014-Jul-26 09:34N 43°14' E 009°52'32 6.3
2014-Jul-26 04:33N 43°04' E 009°11'1919.4
2014-Jul-26 03:33N 43°02' E 008°45'6019.5
2014-Jul-26 00:28N 42°58' E 007°23'1819.2
2014-Jul-25 23:31N 42°58' E 006°58'1818.7
2014-Jul-25 22:33N 42°57' E 006°33'1818.4
2014-Jul-25 21:33N 42°57' E 006°08'1412.4
2014-Jul-25 20:26N 43°07' E 005°56'0 0.0
2014-Jul-25 19:29N 43°07' E 005°56'0 0.1
2014-Jul-25 18:33N 43°07' E 005°56'1514.9
2014-Jul-25 17:33N 42°56' E 006°09'2120.6
2014-Jul-25 16:33N 42°55' E 006°37'2020.2
2014-Jul-25 15:33N 42°52' E 007°05'43 4.6
2014-Jul-25 06:15N 43°25' E 007°43'1419.2
2014-Jul-25 05:33N 43°34' E 007°29'1111.5
2014-Jul-25 04:33N 43°42' E 007°17'2 1.7
2014-Jul-25 03:33N 43°40' E 007°18'1413.1
2014-Jul-25 02:29N 43°27' E 007°26'2713.5
2014-Jul-25 00:32N 43°03' E 007°42'1613.7
2014-Jul-24 23:23N 42°49' E 007°52'1213.8
2014-Jul-24 22:33N 42°39' E 007°58'1514.7
2014-Jul-24 21:34N 42°26' E 008°07'21 1.1
2014-Jul-24 01:31N 42°11' E 007°46'251256.8
2014-Jul-24 00:33N 42°19' E 002°08'225227.8
2014-Jul-23 23:33N 42°27' E 007°12'1616.1
2014-Jul-23 22:33N 42°36' E 006°54'1716.5
2014-Jul-23 21:33N 42°44' E 006°34'1615.9
2014-Jul-23 20:33N 42°53' E 006°16'1615.8
2014-Jul-23 19:33N 43°03' E 005°60'5 5.0
2014-Jul-23 18:33N 43°07' E 005°56'0 0.0
2014-Jul-23 17:33N 43°07' E 005°56'0 0.0
2014-Jul-23 16:33N 43°07' E 005°56'0 0.0
2014-Jul-23 15:33N 43°07' E 005°56'1 0.9
2014-Jul-23 14:33N 43°06' E 005°55'1414.6
2014-Jul-23 13:33N 42°56' E 006°09'1817.7
2014-Jul-23 12:33N 42°47' E 006°30'1717.3
2014-Jul-23 11:33N 42°38' E 006°49'1817.5
2014-Jul-23 10:33N 42°29' E 007°10'1818.4
2014-Jul-23 09:33N 42°19' E 007°31'1918.9
2014-Jul-23 08:33N 42°09' E 007°53'1918.7
2014-Jul-23 07:32N 41°58' E 008°14'1818.3
2014-Jul-23 06:33N 41°50' E 008°35'9 3.1
2014-Jul-23 03:34N 41°54' E 008°24'1616.3
2014-Jul-23 02:34N 42°03' E 008°06'1716.5
2014-Jul-23 01:34N 42°12' E 007°47'1716.8
2014-Jul-23 00:34N 42°21' E 007°28'1716.9
2014-Jul-22 23:33N 42°30' E 007°09'1717.0
2014-Jul-22 22:34N 42°38' E 006°48'1717.0
2014-Jul-22 21:33N 42°47' E 006°29'1616.3
2014-Jul-22 20:33N 42°56' E 006°10'1514.7
2014-Jul-22 19:33N 43°06' E 005°55'2 1.5
2014-Jul-22 18:33N 43°07' E 005°56'1 0.5
2014-Jul-22 17:33N 43°07' E 005°55'1616.4
2014-Jul-22 16:33N 42°55' E 006°11'2019.6
2014-Jul-22 15:33N 42°45' E 006°34'1817.7
2014-Jul-22 14:33N 42°36' E 006°55'1716.5
2014-Jul-22 13:33N 42°27' E 007°13'1918.2
2014-Jul-22 12:32N 42°17' E 007°35'2018.0
2014-Jul-22 11:24N 42°06' E 007°58'  
Track history (hours):
 
Tides and Currents Weather Stations Pressure Air Temp Water Temp Dewpoint Dewpoint Depression Visibility Wind Speed Wind Dir Waves Ship Positions

Mega Smeralda

Last reported at 2014-Aug-01 06:19 UTC. Time now 2014-Aug-01 07:58 UTC.
Position N 43°25' E 007°42'.

Length 171 m; draft 6.3 m.

Type: Passenger vessel. MMSI: 247228600.

Date/timePositionNaut miles runAvg speedWind from/ knotsBaromVisibWave heightAir tempDewpointWater temp
2014-Aug-01 06:19N 43°25' E 007°42'1519.1
2014-Aug-01 05:33N 43°35' E 007°27'10 9.6
2014-Aug-01 04:33N 43°42' E 007°17'0 0.0
2014-Aug-01 03:33N 43°42' E 007°17'1212.2
2014-Aug-01 02:33N 43°30' E 007°23'1514.6
2014-Aug-01 01:34N 43°17' E 007°32'1514.5
2014-Aug-01 00:33N 43°04' E 007°41'1414.3
2014-Jul-31 23:34N 42°51' E 007°50'2014.8
2014-Jul-31 22:13N 42°33' E 008°01'4014.5
2014-Jul-31 19:25N 41°57' E 008°26'36 2.0
2014-Jul-31 01:33N 42°13' E 007°42'1515.4
2014-Jul-31 00:33N 42°22' E 007°25'1515.4
2014-Jul-30 23:33N 42°30' E 007°07'1515.2
2014-Jul-30 22:34N 42°37' E 006°49'1615.7
2014-Jul-30 21:33N 42°44' E 006°30'1515.0
2014-Jul-30 20:33N 42°54' E 006°14'1515.2
2014-Jul-30 19:33N 43°04' E 005°59'4 3.6
2014-Jul-30 18:33N 43°07' E 005°56'0 0.0
2014-Jul-30 17:31N 43°07' E 005°56'0 0.0
2014-Jul-30 16:33N 43°07' E 005°56'0 0.0
2014-Jul-30 15:32N 43°07' E 005°56'1212.5
2014-Jul-30 14:33N 42°57' E 006°06'1717.2
2014-Jul-30 13:33N 42°48' E 006°25'1716.9
2014-Jul-30 12:33N 42°39' E 006°45'1716.9
2014-Jul-30 11:33N 42°30' E 007°05'25 1.9
2014-Jul-29 22:16N 42°43' E 006°36'1216.7
2014-Jul-29 21:33N 42°50' E 006°22'1716.5
2014-Jul-29 20:33N 42°59' E 006°04'10 7.1
2014-Jul-29 19:10N 43°07' E 005°56'0 0.0
2014-Jul-29 18:33N 43°07' E 005°56'2 1.6
2014-Jul-29 17:34N 43°05' E 005°55'1615.8
2014-Jul-29 16:33N 42°55' E 006°11'1716.9
2014-Jul-29 15:33N 42°46' E 006°31'1716.5
2014-Jul-29 14:33N 42°37' E 006°50'15 0.9
2014-Jul-28 22:03N 42°45' E 006°33'816.2
2014-Jul-28 21:33N 42°49' E 006°23'1616.3
2014-Jul-28 20:33N 42°58' E 006°04'1111.2
2014-Jul-28 19:33N 43°07' E 005°56'0 0.0
2014-Jul-28 18:33N 43°07' E 005°56'0 0.0
2014-Jul-28 17:33N 43°07' E 005°56'1313.2
2014-Jul-28 16:33N 42°57' E 006°07'1818.5
2014-Jul-28 15:33N 42°47' E 006°28'1818.0
2014-Jul-28 14:33N 42°37' E 006°49'1918.6
2014-Jul-28 13:33N 42°27' E 007°10'1818.2
2014-Jul-28 12:33N 42°18' E 007°31'34 3.1
2014-Jul-28 01:31N 42°36' E 006°52'1919.7
2014-Jul-28 00:33N 42°46' E 006°30'1918.9
2014-Jul-27 23:33N 42°56' E 006°09'1414.3
2014-Jul-27 22:33N 43°07' E 005°56'0 0.0
2014-Jul-27 21:33N 43°07' E 005°56'9 8.5
2014-Jul-27 20:33N 42°60' E 006°02'1918.8
2014-Jul-27 19:33N 42°55' E 006°27'2019.5
2014-Jul-27 18:33N 42°53' E 006°53'1919.1
2014-Jul-27 17:33N 42°50' E 007°19'4019.0
2014-Jul-27 15:27N 42°45' E 008°13'1719.4
2014-Jul-27 14:33N 42°42' E 008°37'15 6.7
2014-Jul-27 12:18N 42°39' E 008°57'9719.3
2014-Jul-27 07:17N 42°52' E 006°46'1418.9
2014-Jul-27 06:33N 42°54' E 006°28'1918.5
2014-Jul-27 05:33N 42°60' E 006°04'9 9.3
2014-Jul-27 04:34N 43°07' E 005°56'2 1.6
2014-Jul-27 03:33N 43°05' E 005°55'1616.4
2014-Jul-27 02:34N 42°57' E 006°14'2020.3
2014-Jul-27 01:34N 42°57' E 006°42'2019.5
2014-Jul-27 00:34N 42°57' E 007°09'1919.2
2014-Jul-26 23:33N 42°58' E 007°35'2019.5
2014-Jul-26 22:33N 42°59' E 008°02'1919.4
2014-Jul-26 21:34N 43°01' E 008°28'1919.1
2014-Jul-26 20:33N 43°03' E 008°54'2019.0
2014-Jul-26 19:31N 43°03' E 009°21'1716.1
2014-Jul-26 18:27N 42°48' E 009°32'7 3.2
2014-Jul-26 16:17N 42°42' E 009°28'1418.4
2014-Jul-26 15:33N 42°50' E 009°42'1919.1
2014-Jul-26 14:33N 43°04' E 010°00'1919.2
2014-Jul-26 13:34N 43°22' E 010°08'1313.1
2014-Jul-26 12:33N 43°33' E 010°18'0 0.0
2014-Jul-26 11:33N 43°33' E 010°18'6 6.3
2014-Jul-26 10:33N 43°29' E 010°12'2020.2
2014-Jul-26 09:34N 43°14' E 009°52'32 6.3
2014-Jul-26 04:33N 43°04' E 009°11'1919.4
2014-Jul-26 03:33N 43°02' E 008°45'6019.5
2014-Jul-26 00:28N 42°58' E 007°23'1819.2
2014-Jul-25 23:31N 42°58' E 006°58'1818.7
2014-Jul-25 22:33N 42°57' E 006°33'1818.4
2014-Jul-25 21:33N 42°57' E 006°08'1412.4
2014-Jul-25 20:26N 43°07' E 005°56'0 0.0
2014-Jul-25 19:29N 43°07' E 005°56'0 0.1
2014-Jul-25 18:33N 43°07' E 005°56'1514.9
2014-Jul-25 17:33N 42°56' E 006°09'2120.6
2014-Jul-25 16:33N 42°55' E 006°37'2020.2
2014-Jul-25 15:33N 42°52' E 007°05'43 4.6
2014-Jul-25 06:15N 43°25' E 007°43'1419.2
2014-Jul-25 05:33N 43°34' E 007°29'1111.5
2014-Jul-25 04:33N 43°42' E 007°17'2 1.7
2014-Jul-25 03:33N 43°40' E 007°18'1413.1
2014-Jul-25 02:29N 43°27' E 007°26'2713.5
2014-Jul-25 00:32N 43°03' E 007°42'1613.7
2014-Jul-24 23:23N 42°49' E 007°52'1213.8
2014-Jul-24 22:33N 42°39' E 007°58'1514.7
2014-Jul-24 21:34N 42°26' E 008°07'21 1.1
2014-Jul-24 01:31N 42°11' E 007°46'251256.8
2014-Jul-24 00:33N 42°19' E 002°08'225227.8
2014-Jul-23 23:33N 42°27' E 007°12'1616.1
2014-Jul-23 22:33N 42°36' E 006°54'1716.5
2014-Jul-23 21:33N 42°44' E 006°34'1615.9
2014-Jul-23 20:33N 42°53' E 006°16'1615.8
2014-Jul-23 19:33N 43°03' E 005°60'5 5.0
2014-Jul-23 18:33N 43°07' E 005°56'0 0.0
2014-Jul-23 17:33N 43°07' E 005°56'0 0.0
2014-Jul-23 16:33N 43°07' E 005°56'0 0.0
2014-Jul-23 15:33N 43°07' E 005°56'1 0.9
2014-Jul-23 14:33N 43°06' E 005°55'1414.6
2014-Jul-23 13:33N 42°56' E 006°09'1817.7
2014-Jul-23 12:33N 42°47' E 006°30'1717.3
2014-Jul-23 11:33N 42°38' E 006°49'1817.5
2014-Jul-23 10:33N 42°29' E 007°10'1818.4
2014-Jul-23 09:33N 42°19' E 007°31'1918.9
2014-Jul-23 08:33N 42°09' E 007°53'1918.7
2014-Jul-23 07:32N 41°58' E 008°14'1818.3
2014-Jul-23 06:33N 41°50' E 008°35'9 3.1
2014-Jul-23 03:34N 41°54' E 008°24'1616.3
2014-Jul-23 02:34N 42°03' E 008°06'1716.5
2014-Jul-23 01:34N 42°12' E 007°47'1716.8
2014-Jul-23 00:34N 42°21' E 007°28'1716.9
2014-Jul-22 23:33N 42°30' E 007°09'1717.0
2014-Jul-22 22:34N 42°38' E 006°48'1717.0
2014-Jul-22 21:33N 42°47' E 006°29'1616.3
2014-Jul-22 20:33N 42°56' E 006°10'1514.7
2014-Jul-22 19:33N 43°06' E 005°55'2 1.5
2014-Jul-22 18:33N 43°07' E 005°56'1 0.5
2014-Jul-22 17:33N 43°07' E 005°55'1616.4
2014-Jul-22 16:33N 42°55' E 006°11'2019.6
2014-Jul-22 15:33N 42°45' E 006°34'1817.7
2014-Jul-22 14:33N 42°36' E 006°55'1716.5
2014-Jul-22 13:33N 42°27' E 007°13'1918.2
2014-Jul-22 12:32N 42°17' E 007°35'2018.0
2014-Jul-22 11:24N 42°06' E 007°58'  

Dump ship's entire track history